Time;durP1;ratioP1;P1;durP2;ratioP2;P2;SDS_P1;SDS_P2;PMS_P1;PMS_P2;Temp;Humidity;BMP_temperature;BMP_pressure;BME280_temperature;BME280_humidity;BME280_pressure;Samples;Min_cycle;Max_cycle;Signal;HPM_P1;HPM_P2
2022/09/12 00:01:58;;;;;;;4.38;1.92;;;24.50;99.90;;;;;;5032301;28;20380;-68
2022/09/12 00:04:26;;;;;;;7.85;2.05;;;24.50;99.90;;;;;;5036977;28;20035;-69
2022/09/12 00:06:52;;;;;;;3.67;1.65;;;24.50;99.90;;;;;;5042021;28;20030;-68
2022/09/12 00:09:18;;;;;;;4.97;2.08;;;24.50;99.90;;;;;;5033578;28;20061;-69
2022/09/12 00:11:45;;;;;;;3.95;2.00;;;24.50;99.90;;;;;;5034539;28;20060;-69
2022/09/12 00:14:15;;;;;;;5.60;2.00;;;24.50;99.90;;;;;;5034705;28;20037;-70
2022/09/12 00:16:41;;;;;;;8.13;2.22;;;24.50;99.90;;;;;;5037619;28;20053;-69
2022/09/12 00:19:08;;;;;;;7.18;1.77;;;24.50;99.90;;;;;;5036228;28;20461;-70
2022/09/12 00:21:36;;;;;;;4.13;1.77;;;24.50;99.90;;;;;;5038429;28;20590;-69
2022/09/12 00:24:02;;;;;;;4.70;1.70;;;24.50;99.90;;;;;;5033477;28;20033;-70
2022/09/12 00:26:28;;;;;;;4.18;1.75;;;24.50;99.90;;;;;;5038174;28;20045;-68
2022/09/12 00:28:54;;;;;;;5.20;1.60;;;24.50;99.90;;;;;;5036545;28;20052;-69
2022/09/12 00:31:25;;;;;;;8.00;2.00;;;24.50;99.90;;;;;;5019301;28;20029;-68
2022/09/12 00:33:53;;;;;;;4.70;2.05;;;24.50;99.90;;;;;;5035847;28;20029;-69
2022/09/12 00:36:22;;;;;;;7.20;2.03;;;24.50;99.90;;;;;;5037802;28;20161;-68
2022/09/12 00:38:49;;;;;;;5.50;1.40;;;24.50;99.90;;;;;;5040122;28;20486;-70
2022/09/12 00:41:22;;;;;;;3.30;1.48;;;24.50;99.90;;;;;;5033425;28;20042;-68
2022/09/12 00:43:57;;;;;;;9.50;2.10;;;24.50;99.90;;;;;;5036862;28;20025;-68
2022/09/12 00:46:42;;;;;;;5.43;2.05;;;24.50;99.90;;;;;;5031947;28;20108;-70
2022/09/12 00:49:14;;;;;;;6.97;2.00;;;24.50;99.90;;;;;;5029430;28;20030;-69
2022/09/12 00:52:07;;;;;;;5.63;2.05;;;24.50;99.90;;;;;;5034906;28;20431;-69
2022/09/12 00:54:34;;;;;;;;;;;24.50;99.90;;;;;;5034250;28;20048;-69
2022/09/12 00:57:04;;;;;;;5.95;1.88;;;24.50;99.90;;;;;;5035847;28;19921;-68
2022/09/12 00:59:52;;;;;;;7.13;1.70;;;24.50;99.90;;;;;;5043615;28;20045;-69
2022/09/12 01:02:18;;;;;;;8.43;2.08;;;24.50;99.90;;;;;;5031367;28;20025;-70
2022/09/12 01:04:46;;;;;;;4.18;1.80;;;24.50;99.90;;;;;;5034328;28;20049;-68
2022/09/12 01:07:14;;;;;;;5.47;2.00;;;24.60;99.90;;;;;;5034100;28;20354;-69
2022/09/12 01:09:42;;;;;;;4.43;1.80;;;24.50;99.90;;;;;;5039193;28;20025;-69
2022/09/12 01:12:10;;;;;;;4.30;1.70;;;24.50;99.90;;;;;;5036611;28;20037;-68
2022/09/12 01:14:36;;;;;;;4.97;2.00;;;24.50;99.90;;;;;;5020281;28;20076;-69
2022/09/12 01:17:02;;;;;;;4.63;1.60;;;24.50;99.90;;;;;;5030116;28;20041;-70
2022/09/12 01:19:48;;;;;;;6.05;1.90;;;24.50;99.90;;;;;;5040545;28;20108;-70
2022/09/12 01:22:32;;;;;;;4.72;1.85;;;24.50;99.90;;;;;;5036374;28;20049;-68
2022/09/12 01:25:04;;;;;;;5.13;1.83;;;24.50;99.90;;;;;;5033292;28;20040;-69
2022/09/12 01:27:36;;;;;;;5.32;1.50;;;24.50;99.90;;;;;;5032216;28;20144;-69
2022/09/12 01:30:05;;;;;;;5.00;1.70;;;24.40;99.90;;;;;;5035148;28;20534;-69
2022/09/12 01:32:42;;;;;;;7.68;2.28;;;24.40;99.90;;;;;;5034351;28;20036;-70
2022/09/12 01:35:26;;;;;;;5.53;1.75;;;24.40;99.90;;;;;;5040798;28;20215;-69
2022/09/12 01:38:22;;;;;;;5.93;2.10;;;24.40;99.90;;;;;;5034651;28;20049;-70
2022/09/12 01:41:01;;;;;;;5.93;1.60;;;24.30;99.90;;;;;;5019441;28;20042;-68
2022/09/12 01:43:44;;;;;;;6.78;1.65;;;24.30;99.90;;;;;;5038308;28;20029;-71
2022/09/12 01:46:39;;;;;;;4.45;1.63;;;24.30;99.90;;;;;;5033558;28;20061;-69
2022/09/12 01:49:19;;;;;;;5.63;1.50;;;24.30;99.90;;;;;;5034621;28;20038;-68
2022/09/12 01:52:03;;;;;;;4.38;1.65;;;24.40;99.90;;;;;;5030562;28;20025;-69
2022/09/12 01:54:40;;;;;;;7.93;1.98;;;24.40;99.90;;;;;;5032389;28;20123;-69
2022/09/12 01:57:16;;;;;;;3.72;1.40;;;24.40;99.90;;;;;;5028776;28;20037;-69
2022/09/12 01:59:46;;;;;;;5.07;1.80;;;24.40;99.90;;;;;;5032400;28;20064;-70
2022/09/12 02:02:20;;;;;;;4.68;1.60;;;24.40;99.90;;;;;;5036796;28;20680;-68
2022/09/12 02:05:08;;;;;;;4.38;1.63;;;24.40;99.90;;;;;;5033906;28;20029;-70
2022/09/12 02:07:43;;;;;;;7.85;1.90;;;24.40;99.90;;;;;;5035306;28;20496;-68
2022/09/12 02:10:13;;;;;;;4.38;1.60;;;24.40;99.90;;;;;;5027069;28;20029;-69
2022/09/12 02:12:49;;;;;;;4.72;1.80;;;24.40;99.90;;;;;;5035066;28;20037;-70
2022/09/12 02:15:19;;;;;;;4.78;1.80;;;24.40;99.90;;;;;;5016728;28;21269;-68
2022/09/12 02:17:49;;;;;;;6.07;2.15;;;24.40;99.90;;;;;;5034132;28;20060;-69
2022/09/12 02:20:30;;;;;;;3.47;1.65;;;24.40;99.90;;;;;;5032688;28;20130;-69
2022/09/12 02:22:57;;;;;;;9.73;2.03;;;24.40;99.90;;;;;;5035611;28;20040;-69
2022/09/12 02:25:24;;;;;;;4.57;1.77;;;24.40;99.90;;;;;;5031201;28;20043;-69
2022/09/12 02:28:10;;;;;;;6.88;2.28;;;24.40;99.90;;;;;;5040571;28;20471;-69
2022/09/12 02:31:04;;;;;;;5.05;1.80;;;24.40;99.90;;;;;;5033840;28;20489;-69
2022/09/12 02:33:39;;;;;;;8.65;1.98;;;24.40;99.90;;;;;;5032208;28;20084;-70
2022/09/12 02:36:26;;;;;;;5.93;2.47;;;24.40;99.90;;;;;;5028831;28;20377;-70
2022/09/12 02:38:54;;;;;;;8.25;2.30;;;24.40;99.90;;;;;;5035785;28;20037;-69
2022/09/12 02:41:20;;;;;;;5.97;1.80;;;24.40;99.90;;;;;;5041244;28;20040;-70
2022/09/12 02:43:49;;;;;;;6.10;2.42;;;24.30;99.90;;;;;;5039585;28;20033;-69
2022/09/12 02:46:22;;;;;;;5.95;1.77;;;24.30;99.90;;;;;;5037649;28;20167;-70
2022/09/12 02:48:48;;;;;;;9.23;2.10;;;24.30;99.90;;;;;;5035703;28;20036;-70
2022/09/12 02:51:14;;;;;;;3.75;1.77;;;24.30;99.90;;;;;;5035989;28;20021;-70
2022/09/12 02:53:40;;;;;;;6.10;1.70;;;24.30;99.90;;;;;;5033671;28;20034;-70
2022/09/12 02:56:15;;;;;;;5.78;1.50;;;24.30;99.90;;;;;;5033206;28;20063;-72
2022/09/12 02:58:41;;;;;;;5.65;1.90;;;24.30;99.90;;;;;;5034528;28;20123;-69
2022/09/12 03:01:55;;;;;;;4.43;1.75;;;24.30;99.90;;;;;;5025436;28;20107;-68
2022/09/12 03:04:36;;;;;;;9.25;2.30;;;24.30;99.90;;;;;;5039451;28;20080;-69
2022/09/12 03:07:14;;;;;;;5.57;1.63;;;24.30;99.90;;;;;;5038408;28;20447;-68
2022/09/12 03:10:06;;;;;;;6.30;2.42;;;24.30;99.90;;;;;;5031539;28;20432;-71
2022/09/12 03:12:54;;;;;;;6.95;1.60;;;24.20;99.90;;;;;;5041012;28;20033;-69
2022/09/12 03:15:39;;;;;;;4.10;1.60;;;24.20;99.90;;;;;;5030834;28;20102;-69
2022/09/12 03:18:13;;;;;;;5.55;1.80;;;24.20;99.90;;;;;;5031535;28;20037;-68
2022/09/12 03:20:50;;;;;;;6.45;1.77;;;24.20;99.90;;;;;;5036524;28;20128;-69
2022/09/12 03:23:23;;;;;;;5.22;1.80;;;24.20;99.90;;;;;;5038618;28;20653;-69
2022/09/12 03:26:15;;;;;;;5.38;2.35;;;24.10;99.90;;;;;;5034080;28;20029;-68
2022/09/12 03:28:42;;;;;;;;;;;24.10;99.90;;;;;;5032076;28;20575;-68
2022/09/12 03:31:18;;;;;;;5.18;2.05;;;24.10;99.90;;;;;;5035851;28;19912;-69
2022/09/12 03:33:45;;;;;;;5.47;1.73;;;24.10;99.90;;;;;;5034741;28;20032;-68
2022/09/12 03:36:24;;;;;;;5.47;1.73;;;24.10;99.90;;;;;;5035471;28;20037;-68
2022/09/12 03:38:51;;;;;;;5.63;1.70;;;24.10;99.90;;;;;;5034929;28;20115;-68
2022/09/12 03:41:17;;;;;;;5.32;2.00;;;24.10;99.90;;;;;;5032283;28;20140;-69
2022/09/12 03:43:43;;;;;;;5.85;1.85;;;24.10;99.90;;;;;;5034519;28;20037;-70
2022/09/12 03:46:09;;;;;;;5.20;1.67;;;24.10;99.90;;;;;;5041257;28;20030;-70
2022/09/12 03:48:35;;;;;;;6.32;1.58;;;24.10;99.90;;;;;;5036224;28;20064;-68
2022/09/12 03:51:06;;;;;;;4.60;2.22;;;24.20;99.90;;;;;;5036004;28;20469;-69
2022/09/12 03:53:32;;;;;;;4.38;1.58;;;24.20;99.90;;;;;;5036720;28;20021;-69
2022/09/12 03:55:58;;;;;;;5.72;1.60;;;24.10;99.90;;;;;;5033029;28;20032;-69
2022/09/12 03:58:28;;;;;;;6.75;1.80;;;24.10;99.90;;;;;;5039846;28;20079;-68
2022/09/12 04:00:54;;;;;;;8.05;1.95;;;24.10;99.90;;;;;;5037715;28;20825;-68
2022/09/12 04:03:20;;;;;;;4.90;1.85;;;24.10;99.90;;;;;;5034294;28;20075;-69
2022/09/12 04:05:46;;;;;;;6.35;1.85;;;24.10;99.90;;;;;;5040867;28;20029;-69
2022/09/12 04:08:12;;;;;;;5.75;1.70;;;24.00;99.90;;;;;;5037472;28;20692;-69
2022/09/12 04:10:38;;;;;;;3.08;1.65;;;24.00;99.90;;;;;;5035606;28;20029;-68
2022/09/12 04:13:03;;;;;;;5.63;1.70;;;24.00;99.90;;;;;;5039014;28;20037;-68
2022/09/12 04:15:29;;;;;;;4.85;1.80;;;24.10;99.90;;;;;;5037683;28;20057;-70
2022/09/12 04:17:55;;;;;;;4.15;1.98;;;24.10;99.90;;;;;;5048279;28;20663;-69
2022/09/12 04:20:21;;;;;;;4.05;2.00;;;24.10;99.90;;;;;;5032985;28;20041;-68
2022/09/12 04:22:47;;;;;;;5.93;1.90;;;24.00;99.90;;;;;;5035600;28;20047;-69
2022/09/12 04:25:14;;;;;;;4.70;1.92;;;24.00;99.90;;;;;;5032411;28;20049;-68
2022/09/12 04:27:41;;;;;;;7.00;2.15;;;24.10;99.90;;;;;;5035861;28;20029;-69
2022/09/12 04:30:08;;;;;;;3.97;1.80;;;24.10;99.90;;;;;;5036558;28;20084;-70
2022/09/12 04:32:33;;;;;;;5.40;1.70;;;24.00;99.90;;;;;;5035303;28;20029;-68
2022/09/12 04:34:59;;;;;;;4.15;1.58;;;24.00;99.90;;;;;;5038424;28;20047;-70
2022/09/12 04:37:25;;;;;;;3.83;1.67;;;24.10;99.90;;;;;;5035029;28;20071;-69
2022/09/12 04:39:56;;;;;;;4.85;1.77;;;24.10;99.90;;;;;;5029862;28;20037;-70
2022/09/12 04:42:22;;;;;;;7.57;2.60;;;24.10;99.90;;;;;;5033821;28;20041;-69
2022/09/12 04:44:48;;;;;;;4.53;2.00;;;24.10;99.90;;;;;;5021407;28;20033;-68
2022/09/12 04:47:14;;;;;;;6.03;1.95;;;24.00;99.90;;;;;;5013334;28;20057;-69
2022/09/12 04:49:40;;;;;;;5.63;2.28;;;24.00;99.90;;;;;;5032527;28;20079;-69
2022/09/12 04:52:07;;;;;;;6.90;1.95;;;24.00;99.90;;;;;;5034826;28;20029;-68
2022/09/12 04:54:33;;;;;;;7.47;1.83;;;24.00;99.90;;;;;;5030604;28;20049;-69
2022/09/12 04:56:59;;;;;;;5.00;1.85;;;24.00;99.90;;;;;;5031341;28;20064;-69
2022/09/12 04:59:25;;;;;;;5.05;1.90;;;24.10;99.90;;;;;;5034739;28;20025;-70
2022/09/12 05:01:51;;;;;;;5.35;2.25;;;24.10;99.90;;;;;;5033210;28;20018;-68
2022/09/12 05:04:17;;;;;;;4.07;1.80;;;24.20;99.90;;;;;;5033458;28;20044;-69
2022/09/12 05:06:43;;;;;;;9.70;2.25;;;24.10;99.90;;;;;;5032406;28;20040;-69
2022/09/12 05:09:12;;;;;;;5.90;2.03;;;24.10;99.90;;;;;;5032314;28;20099;-68
2022/09/12 05:11:40;;;;;;;6.28;1.85;;;24.10;99.90;;;;;;5036488;28;20111;-70
2022/09/12 05:14:07;;;;;;;4.03;1.90;;;24.10;99.90;;;;;;5023773;28;20355;-70
2022/09/12 05:16:32;;;;;;;3.45;1.80;;;24.10;99.90;;;;;;5049182;28;20435;-68
2022/09/12 05:18:59;;;;;;;4.97;1.98;;;24.10;99.90;;;;;;5037543;28;20033;-69
2022/09/12 05:21:26;;;;;;;4.28;1.73;;;24.10;99.90;;;;;;5035382;28;20040;-69
2022/09/12 05:23:53;;;;;;;4.32;1.80;;;24.10;99.90;;;;;;5033557;28;20025;-70
2022/09/12 05:26:20;;;;;;;3.85;1.80;;;24.10;99.90;;;;;;5030605;28;20025;-68
2022/09/12 05:28:48;;;;;;;7.10;1.75;;;24.10;99.90;;;;;;5018098;28;20072;-69
2022/09/12 05:31:16;;;;;;;6.20;1.75;;;24.20;99.90;;;;;;5030208;28;20030;-70
2022/09/12 05:33:45;;;;;;;5.07;1.85;;;24.10;99.90;;;;;;5018052;28;20032;-68
2022/09/12 05:36:13;;;;;;;6.00;1.80;;;24.10;99.90;;;;;;5034958;28;20079;-70
2022/09/12 05:38:39;;;;;;;5.35;2.00;;;24.20;99.90;;;;;;5033656;28;20251;-69
2022/09/12 05:41:08;;;;;;;3.75;2.10;;;24.20;99.90;;;;;;5032758;28;20571;-68
2022/09/12 05:43:34;;;;;;;8.35;2.25;;;24.20;99.90;;;;;;5019411;28;20041;-69
2022/09/12 05:46:08;;;;;;;7.63;2.90;;;24.20;99.90;;;;;;5038890;28;20041;-71
2022/09/12 05:48:36;;;;;;;6.03;3.08;;;24.20;99.90;;;;;;5037883;28;20119;-69
2022/09/12 05:51:05;;;;;;;6.25;2.78;;;24.20;99.90;;;;;;5038098;28;20036;-68
2022/09/12 05:53:31;;;;;;;8.02;2.70;;;24.20;99.90;;;;;;5033854;28;20065;-69
2022/09/12 05:56:19;;;;;;;7.82;2.92;;;24.20;99.90;;;;;;5007755;28;20072;-69
2022/09/12 05:58:47;;;;;;;10.68;3.05;;;24.20;99.90;;;;;;5033211;28;20504;-69
2022/09/12 06:01:15;;;;;;;7.53;3.22;;;24.10;99.90;;;;;;5039526;28;20042;-70
2022/09/12 06:03:47;;;;;;;6.43;2.97;;;24.20;99.90;;;;;;5033561;28;20044;-70
2022/09/12 06:06:15;;;;;;;5.80;3.20;;;24.30;99.90;;;;;;5035422;28;20041;-68
2022/09/12 06:08:44;;;;;;;7.35;3.33;;;24.30;99.90;;;;;;5033197;28;20417;-68
2022/09/12 06:11:15;;;;;;;6.50;3.00;;;24.30;99.90;;;;;;5032429;28;20037;-69
2022/09/12 06:13:43;;;;;;;7.68;3.00;;;24.40;99.90;;;;;;5036119;28;20110;-69
2022/09/12 06:16:14;;;;;;;9.40;2.70;;;24.40;99.90;;;;;;5019526;28;20053;-70
2022/09/12 06:18:45;;;;;;;5.88;2.92;;;24.40;99.90;;;;;;5033781;28;20129;-69
2022/09/12 06:21:12;;;;;;;9.18;2.95;;;24.50;99.90;;;;;;5042698;28;20033;-69
2022/09/12 06:23:39;;;;;;;9.25;2.70;;;24.50;99.90;;;;;;5036898;28;20034;-68
2022/09/12 06:26:07;;;;;;;7.90;2.70;;;24.60;99.90;;;;;;5021562;28;20029;-68
2022/09/12 06:28:39;;;;;;;8.90;3.10;;;24.50;99.90;;;;;;5044365;28;20048;-70
2022/09/12 06:31:06;;;;;;;12.07;3.10;;;24.60;99.90;;;;;;5033898;28;20488;-68
2022/09/12 06:33:37;;;;;;;6.18;2.80;;;24.70;99.90;;;;;;5044492;28;20068;-69
2022/09/12 06:36:12;;;;;;;7.95;3.08;;;24.70;99.90;;;;;;5040622;28;20050;-69
2022/09/12 06:38:41;;;;;;;8.77;3.40;;;24.80;99.90;;;;;;5037954;28;20091;-69
2022/09/12 06:41:10;;;;;;;5.93;2.88;;;24.90;99.90;;;;;;5036181;28;20033;-69
2022/09/12 06:43:36;;;;;;;8.05;3.17;;;24.90;99.90;;;;;;5035311;28;20731;-68
2022/09/12 06:46:02;;;;;;;7.60;2.83;;;24.90;99.90;;;;;;5035164;28;20519;-69
2022/09/12 06:48:28;;;;;;;7.72;2.95;;;24.90;99.90;;;;;;5039983;28;20037;-70
2022/09/12 06:51:02;;;;;;;12.35;3.05;;;25.00;99.90;;;;;;5044158;28;20095;-70
2022/09/12 06:53:29;;;;;;;11.35;3.28;;;25.10;99.90;;;;;;5035457;28;20045;-68
2022/09/12 06:56:00;;;;;;;9.27;2.78;;;25.10;99.90;;;;;;5042116;28;20033;-69
2022/09/12 06:58:28;;;;;;;;;;;25.20;99.90;;;;;;5033493;28;20044;-68
2022/09/12 07:01:04;;;;;;;9.48;3.45;;;25.30;99.90;;;;;;5046121;28;19923;-69
2022/09/12 07:03:30;;;;;;;8.95;2.80;;;25.40;99.90;;;;;;5034417;28;20079;-70
2022/09/12 07:05:58;;;;;;;6.45;1.65;;;25.50;99.90;;;;;;5034946;28;20033;-70
2022/09/12 07:08:24;;;;;;;6.03;1.92;;;25.50;99.90;;;;;;5037296;28;20128;-70
2022/09/12 07:10:50;;;;;;;8.43;1.60;;;25.50;99.90;;;;;;5043631;28;20034;-70
2022/09/12 07:13:16;;;;;;;4.97;2.10;;;25.50;99.90;;;;;;5036166;28;20045;-69
2022/09/12 07:15:41;;;;;;;6.30;2.13;;;25.50;99.90;;;;;;5037980;28;20029;-70
2022/09/12 07:18:09;;;;;;;7.38;2.70;;;25.50;99.90;;;;;;5035866;28;20033;-69
2022/09/12 07:20:36;;;;;;;7.00;2.00;;;25.50;99.90;;;;;;5038270;28;20488;-70
2022/09/12 07:23:01;;;;;;;7.75;2.47;;;25.60;99.90;;;;;;5045150;28;20141;-70
2022/09/12 07:25:27;;;;;;;6.03;1.90;;;25.70;99.90;;;;;;5037565;28;20120;-70
2022/09/12 07:27:54;;;;;;;4.75;2.00;;;25.70;99.90;;;;;;5035801;28;20129;-71
2022/09/12 07:30:21;;;;;;;6.55;2.00;;;25.70;99.90;;;;;;5040922;28;20111;-71
2022/09/12 07:32:52;;;;;;;7.30;2.40;;;25.70;99.90;;;;;;5038207;28;20029;-70
2022/09/12 07:35:18;;;;;;;6.32;2.10;;;25.80;99.90;;;;;;5014805;28;20037;-69
2022/09/12 07:37:44;;;;;;;7.82;2.40;;;26.20;99.90;;;;;;5038444;28;20117;-71
2022/09/12 07:40:10;;;;;;;6.82;2.30;;;26.20;99.90;;;;;;5034807;28;20045;-69
2022/09/12 07:42:37;;;;;;;9.07;2.20;;;26.50;99.90;;;;;;5036313;28;20040;-69
2022/09/12 07:45:03;;;;;;;4.03;1.40;;;26.60;99.90;;;;;;5025787;28;20037;-69
2022/09/12 07:47:28;;;;;;;4.80;1.65;;;26.60;99.90;;;;;;5036665;28;20037;-69
2022/09/12 07:49:55;;;;;;;6.95;1.67;;;26.40;99.90;;;;;;5034261;28;20044;-69
2022/09/12 07:52:21;;;;;;;6.15;1.70;;;26.50;99.90;;;;;;5034831;28;20127;-69
2022/09/12 07:54:47;;;;;;;4.75;1.50;;;26.40;99.90;;;;;;5039100;28;20700;-68
2022/09/12 07:57:14;;;;;;;6.10;1.92;;;26.50;99.90;;;;;;5036018;28;20076;-69
2022/09/12 07:59:41;;;;;;;4.57;1.85;;;26.60;99.90;;;;;;5033299;28;20489;-69
2022/09/12 08:02:13;;;;;;;4.03;1.50;;;26.70;99.90;;;;;;5035789;28;20021;-69
2022/09/12 08:04:40;;;;;;;5.32;1.42;;;26.50;99.90;;;;;;5048642;28;20033;-70
2022/09/12 08:07:07;;;;;;;10.95;2.55;;;26.20;99.90;;;;;;5036092;28;20036;-69
2022/09/12 08:09:33;;;;;;;7.20;1.88;;;26.30;99.90;;;;;;5039127;28;20156;-70
2022/09/12 08:11:59;;;;;;;7.15;1.60;;;26.30;99.90;;;;;;5039632;28;20046;-70
2022/09/12 08:14:26;;;;;;;8.73;2.40;;;26.40;99.90;;;;;;5042639;28;20043;-68
2022/09/12 08:16:52;;;;;;;3.97;1.90;;;26.50;99.90;;;;;;5038610;28;20041;-69
2022/09/12 08:19:18;;;;;;;6.68;2.28;;;26.80;99.90;;;;;;5025190;28;20041;-71
2022/09/12 08:21:44;;;;;;;5.22;2.13;;;26.60;99.90;;;;;;5034091;28;20112;-70
2022/09/12 08:24:11;;;;;;;6.78;2.10;;;26.60;99.90;;;;;;5033474;28;20137;-68
2022/09/12 08:26:37;;;;;;;5.95;2.50;;;26.60;99.90;;;;;;5037791;28;20030;-69
2022/09/12 08:29:05;;;;;;;4.10;1.95;;;26.70;99.90;;;;;;5036596;28;20025;-69
2022/09/12 08:31:35;;;;;;;6.18;2.70;;;26.50;99.90;;;;;;5033704;28;20025;-69
2022/09/12 08:34:03;;;;;;;7.07;2.05;;;26.50;99.90;;;;;;5036624;28;20029;-69
2022/09/12 08:36:29;;;;;;;6.65;2.15;;;26.50;99.90;;;;;;5032355;28;20037;-69
2022/09/12 08:39:00;;;;;;;6.93;2.03;;;26.30;99.90;;;;;;5032436;28;20046;-68
2022/09/12 08:41:43;;;;;;;6.57;2.47;;;26.40;99.90;;;;;;5032535;28;20021;-70
2022/09/12 08:44:49;;;;;;;8.45;2.40;;;26.70;99.90;;;;;;5032112;28;20504;-72
2022/09/12 08:47:36;;;;;;;7.25;2.20;;;27.00;99.90;;;;;;5028931;28;20029;-69
2022/09/12 08:50:10;;;;;;;10.52;2.40;;;27.30;99.90;;;;;;5033655;28;20171;-69
2022/09/12 08:52:57;;;;;;;5.18;2.33;;;27.50;99.90;;;;;;5033539;28;20040;-68
2022/09/12 08:55:37;;;;;;;9.82;2.15;;;27.30;99.90;;;;;;5039053;28;20049;-70
2022/09/12 08:58:23;;;;;;;7.22;2.10;;;27.20;99.90;;;;;;5038934;28;20106;-68
2022/09/12 09:01:01;;;;;;;6.90;2.15;;;27.20;99.90;;;;;;5027988;28;20037;-70
2022/09/12 09:04:00;;;;;;;4.68;1.92;;;27.30;99.90;;;;;;5022837;28;20101;-69
2022/09/12 09:06:36;;;;;;;7.80;1.85;;;27.20;99.90;;;;;;5017410;28;20045;-69
2022/09/12 09:09:02;;;;;;;5.30;2.08;;;27.40;99.90;;;;;;5023887;28;20049;-68
2022/09/12 09:11:56;;;;;;;7.63;2.25;;;27.40;99.90;;;;;;5020908;28;20045;-70
2022/09/12 09:14:49;;;;;;;6.43;2.35;;;27.40;99.90;;;;;;5020111;28;20041;-69
2022/09/12 09:17:33;;;;;;;7.10;2.40;;;27.50;99.90;;;;;;5017373;28;20492;-70
2022/09/12 09:20:21;;;;;;;7.20;2.55;;;27.70;99.90;;;;;;5020697;28;20048;-68
2022/09/12 09:22:57;;;;;;;4.80;2.30;;;27.60;99.90;;;;;;5022762;28;20064;-70
2022/09/12 09:25:58;;;;;;;4.93;2.33;;;27.40;99.90;;;;;;5020870;28;20829;-69
2022/09/12 09:29:06;;;;;;;6.72;1.88;;;27.50;99.90;;;;;;5004598;28;20041;-68
2022/09/12 09:31:37;;;;;;;9.05;2.40;;;27.30;99.90;;;;;;4984748;28;20436;-70
2022/09/12 09:34:28;;;;;;;7.05;1.92;;;27.50;99.90;;;;;;4998601;28;20461;-69
2022/09/12 09:37:14;;;;;;;7.47;1.97;;;28.00;99.90;;;;;;5020487;28;20033;-68
2022/09/12 09:39:49;;;;;;;10.32;2.05;;;28.20;99.90;;;;;;5011352;28;20274;-70
2022/09/12 09:42:17;;;;;;;7.43;2.75;;;28.20;99.90;;;;;;5017876;28;20044;-69
2022/09/12 09:44:47;;;;;;;6.70;2.42;;;28.40;99.90;;;;;;5017110;28;20056;-70
2022/09/12 09:47:14;;;;;;;6.93;2.15;;;28.50;99.90;;;;;;5014433;28;20041;-69
2022/09/12 09:49:40;;;;;;;7.43;2.42;;;28.70;99.90;;;;;;5021820;28;20412;-69
2022/09/12 09:52:07;;;;;;;4.38;2.10;;;28.50;99.90;;;;;;5032937;28;20112;-68
2022/09/12 09:54:41;;;;;;;8.18;2.28;;;28.40;99.90;;;;;;5006517;28;20560;-69
2022/09/12 09:57:35;;;;;;;9.70;2.00;;;28.80;99.90;;;;;;5037748;28;20131;-69
2022/09/12 10:00:22;;;;;;;7.88;2.10;;;29.20;99.90;;;;;;5044058;28;20037;-68
2022/09/12 10:03:13;;;;;;;8.75;2.53;;;29.00;99.90;;;;;;5036839;28;20033;-69
2022/09/12 10:05:47;;;;;;;6.68;2.10;;;28.80;99.90;;;;;;5037333;28;20022;-70
2022/09/12 10:08:34;;;;;;;7.60;2.10;;;28.90;99.90;;;;;;5040285;28;20025;-69
2022/09/12 10:11:00;;;;;;;6.90;1.90;;;29.20;99.90;;;;;;5031433;28;20095;-69
2022/09/12 10:13:40;;;;;;;9.30;2.72;;;29.40;99.90;;;;;;5029167;28;20090;-69
2022/09/12 10:16:18;;;;;;;7.50;1.80;;;29.80;99.90;;;;;;5029283;28;20780;-70
2022/09/12 10:18:45;;;;;;;5.47;1.70;;;29.50;99.90;;;;;;5021947;28;20045;-69
2022/09/12 10:21:24;;;;;;;9.13;1.92;;;29.20;99.90;;;;;;5012942;28;20059;-70
2022/09/12 10:24:00;;;;;;;5.18;1.95;;;29.90;99.90;;;;;;5017503;28;20037;-69
2022/09/12 10:26:31;;;;;;;9.18;1.88;;;30.10;99.90;;;;;;5027479;28;20622;-68
2022/09/12 10:28:57;;;;;;;5.68;1.95;;;30.50;99.90;;;;;;5020748;28;20044;-69
2022/09/12 10:31:42;;;;;;;7.85;2.33;;;31.00;99.90;;;;;;5017465;28;20076;-69
2022/09/12 10:34:20;;;;;;;6.07;1.83;;;30.80;99.90;;;;;;5009402;28;20045;-71
2022/09/12 10:36:47;;;;;;;7.85;2.40;;;30.90;99.90;;;;;;5023182;28;20045;-70
2022/09/12 10:39:18;;;;;;;10.10;2.13;;;30.80;99.90;;;;;;5019673;28;20037;-70
2022/09/12 10:41:45;;;;;;;6.00;2.05;;;30.70;99.90;;;;;;5034492;28;20030;-70
2022/09/12 10:44:29;;;;;;;8.98;2.35;;;31.00;99.90;;;;;;5010391;28;20044;-69
2022/09/12 10:46:57;;;;;;;8.20;2.08;;;31.20;99.90;;;;;;5043880;28;20551;-69
2022/09/12 10:49:38;;;;;;;5.90;2.00;;;31.00;99.90;;;;;;5036802;28;20033;-70
2022/09/12 10:52:22;;;;;;;;;;;30.30;99.90;;;;;;5039720;28;20049;-69
2022/09/12 10:54:48;;;;;;;9.82;2.03;;;30.80;99.90;;;;;;5043908;28;19951;-69
2022/09/12 10:57:17;;;;;;;8.73;2.20;;;31.30;99.90;;;;;;5006009;28;20038;-68
2022/09/12 11:00:19;;;;;;;5.97;2.00;;;31.40;99.90;;;;;;5042700;28;20123;-69
2022/09/12 11:03:01;;;;;;;6.22;2.35;;;31.90;99.90;;;;;;5020661;28;20033;-70
2022/09/12 11:05:52;;;;;;;6.05;2.15;;;31.70;99.90;;;;;;5020603;28;20025;-70
2022/09/12 11:08:38;;;;;;;6.65;2.47;;;31.90;99.90;;;;;;5024712;28;20378;-69
2022/09/12 11:11:15;;;;;;;11.93;2.40;;;31.20;99.90;;;;;;5022750;28;20052;-69
2022/09/12 11:13:56;;;;;;;8.02;2.75;;;32.00;99.90;;;;;;5034321;28;20042;-69
2022/09/12 11:16:57;;;;;;;7.60;2.43;;;32.00;99.90;;;;;;5016599;28;20033;-70
2022/09/12 11:19:45;;;;;;;4.88;2.20;;;32.00;99.90;;;;;;5001055;28;20346;-70
2022/09/12 11:22:32;;;;;;;7.45;2.08;;;32.00;99.90;;;;;;5021510;28;20037;-70
2022/09/12 11:25:16;;;;;;;8.63;2.35;;;31.90;99.90;;;;;;5017861;28;20079;-70
2022/09/12 11:27:56;;;;;;;5.63;2.15;;;31.90;99.90;;;;;;5032993;28;20043;-70
2022/09/12 11:30:22;;;;;;;5.53;2.15;;;31.70;99.90;;;;;;5021881;28;20488;-71
2022/09/12 11:33:01;;;;;;;6.03;1.70;;;31.90;99.90;;;;;;5021129;28;20045;-71
2022/09/12 11:35:29;;;;;;;5.93;2.40;;;31.90;99.90;;;;;;5017262;28;20038;-69
2022/09/12 11:37:57;;;;;;;4.78;2.05;;;32.50;99.90;;;;;;5018514;28;20037;-70
2022/09/12 11:40:26;;;;;;;5.43;2.45;;;32.70;99.90;;;;;;5021470;28;20121;-68
2022/09/12 11:43:04;;;;;;;9.77;2.08;;;32.90;99.90;;;;;;5014988;28;20036;-69
2022/09/12 11:45:51;;;;;;;9.05;2.33;;;32.70;99.90;;;;;;5007520;28;20105;-69
2022/09/12 11:48:26;;;;;;;5.13;1.83;;;32.80;99.90;;;;;;5033278;28;20151;-69
2022/09/12 11:50:53;;;;;;;5.90;2.20;;;32.40;99.90;;;;;;5035693;28;20041;-69
2022/09/12 11:53:28;;;;;;;6.25;1.85;;;32.60;99.90;;;;;;5036862;28;20406;-70
2022/09/12 11:56:17;;;;;;;4.57;1.92;;;32.70;99.90;;;;;;5035710;28;20037;-71
2022/09/12 11:58:50;;;;;;;6.20;1.67;;;33.00;99.90;;;;;;5033736;28;20051;-69
2022/09/12 12:01:34;;;;;;;4.70;1.73;;;32.80;99.90;;;;;;5035454;28;20037;-69
2022/09/12 12:04:09;;;;;;;5.40;1.80;;;33.00;99.90;;;;;;5033196;28;20051;-70
2022/09/12 12:06:55;;;;;;;9.80;2.38;;;33.30;99.90;;;;;;5035345;28;20133;-70
2022/09/12 12:09:21;;;;;;;9.23;1.92;;;33.40;99.90;;;;;;5040188;28;20037;-70
2022/09/12 12:11:56;;;;;;;5.60;2.15;;;33.70;99.90;;;;;;5039895;28;20120;-70
2022/09/12 12:14:56;;;;;;;6.05;1.83;;;33.30;99.90;;;;;;5036839;28;20827;-70
2022/09/12 12:17:24;;;;;;;6.10;1.92;;;32.90;99.90;;;;;;5035905;28;20052;-68
2022/09/12 12:19:59;;;;;;;8.23;2.10;;;32.30;99.90;;;;;;5038219;28;20029;-68
2022/09/12 12:22:26;;;;;;;6.55;1.85;;;32.60;99.90;;;;;;5037459;28;20029;-69
2022/09/12 12:25:23;;;;;;;6.20;1.77;;;32.60;99.90;;;;;;5033097;28;20484;-68
2022/09/12 12:27:53;;;;;;;7.30;1.42;;;32.50;99.90;;;;;;5031550;28;20029;-69
2022/09/12 12:30:28;;;;;;;5.80;1.92;;;32.40;99.90;;;;;;5033309;28;20403;-70
2022/09/12 12:33:01;;;;;;;6.75;1.58;;;33.10;99.90;;;;;;5034879;28;20040;-70
2022/09/12 12:35:42;;;;;;;5.05;1.58;;;32.80;99.90;;;;;;5032192;28;20037;-69
2022/09/12 12:38:38;;;;;;;5.63;1.50;;;33.00;99.90;;;;;;5040810;28;20040;-68
2022/09/12 12:41:16;;;;;;;5.47;1.50;;;33.70;99.90;;;;;;5025109;28;20065;-71
2022/09/12 12:43:46;;;;;;;7.70;1.35;;;33.70;99.90;;;;;;5035140;28;20089;-71
2022/09/12 12:46:16;;;;;;;6.03;1.60;;;34.20;99.90;;;;;;5050606;28;20068;-70
2022/09/12 12:48:48;;;;;;;4.32;1.90;;;34.10;99.90;;;;;;5041902;28;20036;-70
2022/09/12 12:51:28;;;;;;;6.35;1.60;;;34.30;99.90;;;;;;5035290;28;20045;-69
2022/09/12 12:53:55;;;;;;;4.68;1.30;;;33.90;99.90;;;;;;5020588;28;20045;-70
2022/09/12 12:56:35;;;;;;;5.80;1.50;;;34.10;99.90;;;;;;5014235;28;20076;-68
2022/09/12 12:59:20;;;;;;;8.10;1.67;;;34.30;99.90;;;;;;5014302;28;20435;-69
2022/09/12 13:01:49;;;;;;;3.60;1.40;;;34.20;99.90;;;;;;5028372;28;20041;-69
2022/09/12 13:04:19;;;;;;;5.85;1.33;;;33.50;99.90;;;;;;5003586;28;20503;-69
2022/09/12 13:07:18;;;;;;;6.65;1.95;;;33.70;99.90;;;;;;5025422;28;20122;-69
2022/09/12 13:09:48;;;;;;;5.97;1.60;;;34.00;99.90;;;;;;5022910;28;20042;-70
2022/09/12 13:12:23;;;;;;;4.30;1.30;;;34.10;99.90;;;;;;5014879;28;20508;-69
2022/09/12 13:14:53;;;;;;;4.13;1.40;;;34.30;99.90;;;;;;5018527;28;20056;-68
2022/09/12 13:17:37;;;;;;;3.85;1.50;;;34.60;99.90;;;;;;4999519;28;20531;-68
2022/09/12 13:20:11;;;;;;;5.38;1.42;;;34.10;99.90;;;;;;5022305;28;20037;-70